Flight Track Log - Related Links

Times and Time Zones

All times are in EDT time to prevent confusion due to time zone crossing. See the XOJ552 flight status page for this flight to view local times or setup timezone preferences in your user account.

Time Position Orientation Groundspeed Altitude Reporting Facility
EDT Latitude Longitude Course Direction KTS MPH feet Rate Location/Type
Tue 07:53:06 PM 37.6500 -122.3333 70° East 220 253 2,200  Level Northern Cal TRACON
Tue 07:54:00 PM 37.7000 -122.2833 38° Northeast 251 289 5,100 3,350 Climbing Northern Cal TRACON
Tue 07:55:06 PM 37.7333 -122.1833 67° East 286 329 8,900 2,842 Climbing Northern Cal TRACON
Tue 07:57:10 PM 37.7967 -121.9781 69° East 341 392 14,100 1,935 Climbing Oakland Center
Tue 07:58:00 PM 37.7004 -122.1151 70° East  Level FlightAware Approximate
Tue 07:58:12 PM 37.8328 -121.8536 70° East 375 432 14,900  Level Oakland Center
Tue 07:59:13 PM 37.8794 -121.6942 70° East 402 463 15,000 878 Climbing Oakland Center
Tue 08:00:15 PM 37.9164 -121.5669 70° East 389 448 16,700 2,000 Climbing Oakland Center
Tue 08:01:16 PM 37.9472 -121.4556 71° East 383 441 19,100 2,557 Climbing Oakland Center
Tue 08:02:17 PM 37.9914 -121.3022 70° East 388 447 21,900 2,341 Climbing Oakland Center
Tue 08:03:19 PM 38.0281 -121.1681 71° East 402 463 23,900 1,951 Climbing Oakland Center
Tue 08:04:20 PM 38.0675 -121.0292 70° East 418 481 25,900 1,951 Climbing Oakland Center
Tue 08:05:22 PM 38.0958 -120.8842 76° East 424 488 27,900 1,707 Climbing Oakland Center
Tue 08:06:23 PM 38.1217 -120.7353 78° East 434 499 29,400 1,475 Climbing Oakland Center
Tue 08:07:24 PM 38.1489 -120.5786 77° East 453 521 30,900 1,220 Climbing Oakland Center
Tue 08:08:26 PM 38.1781 -120.4158 77° East 471 542 31,900 1,073 Climbing Oakland Center
Tue 08:09:27 PM 38.2114 -120.2125 78° East 492 566 33,100 1,082 Climbing Oakland Center
Tue 08:10:28 PM 38.2431 -120.0372 77° East 507 583 34,100 1,024 Climbing Oakland Center
Tue 08:11:30 PM 38.2731 -119.8606 78° East 512 589 35,200 1,268 Climbing Oakland Center
Tue 08:12:31 PM 38.3019 -119.6864 78° East 505 581 36,700 1,426 Climbing Oakland Center
Tue 08:13:32 PM 38.3303 -119.5153 78° East 496 571 38,100 1,366 Climbing Oakland Center
Tue 08:14:34 PM 38.3600 -119.3336 78° East 487 560 39,500 1,024 Climbing Oakland Center
Tue 08:15:35 PM 38.3869 -119.1672 78° East 483 556 40,200 590 Climbing Oakland Center
Tue 08:16:36 PM 38.4164 -118.9986 77° East 490 564 40,700 390 Climbing Oakland Center
Tue 08:17:38 PM 38.4742 -118.8361 66° East 507 583 41,000 146 Climbing Oakland Center
Tue 08:18:39 PM 38.5347 -118.6725 65° Northeast 512 589 41,000  Level Oakland Center
Tue 08:19:40 PM 38.5975 -118.5039 64° Northeast 523 602 41,000 -49 Level Oakland Center
Tue 08:20:42 PM 38.6614 -118.3333 64° Northeast 533 613 40,900  Descending Oakland Center
Tue 08:21:43 PM 38.7344 -118.1358 65° Northeast 516 594 41,000 49 Climbing Oakland Center
Tue 08:22:44 PM 38.7925 -117.9747 65° Northeast 504 580 41,000  Level Oakland Center
Tue 08:23:46 PM 38.8536 -117.8069 65° Northeast 516 594 41,000  Level Oakland Center
Tue 08:24:47 PM 38.9150 -117.6397 65° Northeast 520 598 41,000  Level Oakland Center
Tue 08:25:48 PM 38.9747 -117.4722 65° Northeast 519 597 41,000  Level Oakland Center
Tue 08:26:49 PM 39.0344 -117.3044 65° Northeast 518 596 41,000  Level Oakland Center
Tue 08:27:51 PM 39.0944 -117.1383 65° Northeast 515 593 41,000  Level Oakland Center
Tue 08:28:52 PM 39.1556 -116.9628 66° East 517 595 41,000  Level Oakland Center
Tue 08:29:53 PM 39.2214 -116.7764 65° Northeast 515 593 41,000  Level Oakland Center
Tue 08:30:55 PM 39.2772 -116.6139 66° East 517 595 41,000  Level Oakland Center
Tue 08:31:56 PM 39.3339 -116.4508 66° East 520 598 41,000  Level Oakland Center
Tue 08:32:57 PM 39.3989 -116.2611 66° East 520 598 41,000  Level Oakland Center
Tue 08:33:59 PM 39.4553 -116.0969 66° East 522 601 41,000  Level Oakland Center
Tue 08:35:19 PM 39.5394 -115.8494 66° East 521 600 41,000  Level Salt Lake Center
Tue 08:36:21 PM 39.5947 -115.6858 66° East 521 600 41,000  Level Salt Lake Center
Tue 08:37:23 PM 39.6583 -115.4939 67° East 520 598 41,000  Level Salt Lake Center
Tue 08:38:25 PM 39.7147 -115.3311 66° East 520 598 41,000  Level Salt Lake Center
Tue 08:39:26 PM 39.7778 -115.1419 67° East 513 590 41,000  Level Salt Lake Center
Tue 08:40:28 PM 39.8308 -114.9794 67° East 511 588 41,000  Level Salt Lake Center
Tue 08:41:30 PM 39.8858 -114.8183 66° East 510 587 41,000  Level Salt Lake Center
Tue 08:42:32 PM 39.9408 -114.6489 67° East 505 581 41,000  Level Salt Lake Center
Tue 08:43:34 PM 39.9933 -114.4825 68° East 500 575 41,000  Level Salt Lake Center
Tue 08:44:35 PM 40.0575 -114.2844 67° East 496 571 41,000  Level Salt Lake Center
Tue 08:45:37 PM 40.1094 -114.1175 68° East 498 573 41,000  Level Salt Lake Center
Tue 08:46:39 PM 40.1631 -113.9539 67° East 492 566 41,000  Level Salt Lake Center
Tue 08:47:40 PM 40.2147 -113.7892 68° East 491 565 41,000  Level Salt Lake Center
Tue 08:48:42 PM 40.2656 -113.6247 68° East 490 564 41,000  Level Salt Lake Center
Tue 08:49:44 PM 40.3167 -113.4614 68° East 486 559 41,000  Level Salt Lake Center
Tue 08:50:45 PM 40.3678 -113.2969 68° East 488 562 41,000  Level Salt Lake Center
Tue 08:51:47 PM 40.4297 -113.0978 68° East 493 567 41,000  Level Salt Lake Center
Tue 08:52:49 PM 40.4808 -112.9333 68° East 491 565 41,000  Level Salt Lake Center
Tue 08:53:50 PM 40.5317 -112.7667 68° East 493 567 41,000  Level Salt Lake Center
Tue 08:54:52 PM 40.5814 -112.5992 69° East 494 568 41,000  Level Salt Lake Center
Tue 08:55:54 PM 40.6322 -112.4342 68° East 492 566 41,000  Level Salt Lake Center
Tue 08:56:55 PM 40.6806 -112.2681 69° East 489 563 41,000  Level Salt Lake Center
Tue 08:57:57 PM 40.7414 -112.0681 68° East 502 578 41,000  Level Salt Lake Center
Tue 08:58:59 PM 40.7903 -111.9028 69° East 501 577 41,000  Level Salt Lake Center
Tue 09:00:00 PM 40.8372 -111.7389 69° East 487 560 41,000  Level Salt Lake Center
Tue 09:01:02 PM 40.8839 -111.5764 69° East 478 550 41,000  Level Salt Lake Center
Tue 09:02:03 PM 40.9317 -111.4119 69° East 485 558 41,000  Level Salt Lake Center
Tue 09:03:05 PM 40.9886 -111.2158 69° East 480 552 41,000  Level Salt Lake Center
Tue 09:04:06 PM 41.0353 -111.0497 70° East 482 555 41,000  Level Salt Lake Center
Tue 09:05:08 PM 41.0822 -110.8831 69° East 484 557 41,000  Level Salt Lake Center
Tue 09:06:10 PM 41.1322 -110.7056 69° East 482 555 41,000  Level Salt Lake Center
Tue 09:07:11 PM 41.1753 -110.5464 70° East 480 552 41,000  Level Salt Lake Center
Tue 09:08:13 PM 41.2203 -110.3861 69° East 481 554 41,000  Level Salt Lake Center
Tue 09:09:14 PM 41.2719 -110.1981 70° East 486 559 41,000  Level Salt Lake Center
Tue 09:10:16 PM 41.3167 -110.0361 70° East 487 560 41,000  Level Salt Lake Center
Tue 09:11:17 PM 41.3678 -109.8489 70° East 484 557 41,000  Level Salt Lake Center
Tue 09:12:19 PM 41.4119 -109.6878 70° East 485 558 41,000  Level Salt Lake Center
Tue 09:13:20 PM 41.4553 -109.5264 70° East 483 556 41,000  Level Salt Lake Center
Tue 09:14:22 PM 41.5067 -109.3381 70° East 481 554 41,000  Level Salt Lake Center
Tue 09:15:23 PM 41.5536 -109.1731 69° East 485 558 41,000  Level Salt Lake Center
Tue 09:16:25 PM 41.5922 -109.0017 73° East 490 564 41,000  Level Salt Lake Center
Tue 09:17:26 PM 41.6069 -108.8042 84° East 476 548 41,000  Level Salt Lake Center
Tue 09:18:28 PM 41.6200 -108.6364 84° East 473 544 41,000  Level Salt Lake Center
Tue 09:19:29 PM 41.6339 -108.4392 85° East 477 549 41,000  Level Salt Lake Center
Tue 09:20:31 PM 41.6458 -108.2692 85° East 478 550 41,000  Level Salt Lake Center
Tue 09:21:32 PM 41.6575 -108.1011 85° East 476 548 41,000  Level Salt Lake Center
Tue 09:22:34 PM 41.6728 -107.9069 84° East 470 541 41,000  Level Salt Lake Center
Tue 09:23:07 PM 41.6781 -107.8217 85° East 469 540 41,000  Level Denver Center
Tue 09:24:08 PM 41.6917 -107.6283 85° East 467 537 41,000  Level Denver Center
Tue 09:25:10 PM 41.7019 -107.4633 85° East 467 537 41,000  Level Denver Center
Tue 09:26:12 PM 41.7156 -107.2708 85° East 466 536 41,000  Level Denver Center
Tue 09:27:14 PM 41.7244 -107.1031 86° East 471 542 41,000  Level Denver Center
Tue 09:28:15 PM 41.7364 -106.9389 84° East 466 536 41,000  Level Denver Center
Tue 09:29:17 PM 41.7461 -106.7442 86° East 471 542 41,000  Level Denver Center
Tue 09:30:18 PM 41.7533 -106.6053 86° East 471 542 41,000  Level Denver Center
Tue 09:31:20 PM 41.7658 -106.3975 85° East 472 543 41,000  Level Denver Center
Tue 09:32:22 PM 41.7767 -106.2039 86° East 469 540 41,000  Level Denver Center
Tue 09:33:24 PM 41.7861 -106.0392 86° East 467 537 41,000  Level Denver Center
Tue 09:34:25 PM 41.7964 -105.8467 86° East 464 534 41,000  Level Denver Center
Tue 09:35:27 PM 41.8056 -105.6828 86° East 463 533 41,000  Level Denver Center
Tue 09:36:29 PM 41.8133 -105.5164 86° East 467 537 41,000  Level Denver Center
Tue 09:37:42 PM 41.8231 -105.3222 86° East 468 539 41,000  Level Denver Center
Tue 09:38:44 PM 41.8325 -105.0989 87° East 472 543 41,000  Level Denver Center
Tue 09:39:46 PM 41.8397 -104.9311 87° East 472 543 41,000  Level Denver Center
Tue 09:40:47 PM 41.8475 -104.7364 87° East 473 544 41,000  Level Denver Center
Tue 09:41:49 PM 41.8542 -104.5742 87° East 464 534 41,000  Level Denver Center
Tue 09:42:51 PM 41.8600 -104.4094 87° East 466 536 41,000  Level Denver Center
Tue 09:43:52 PM 41.8672 -104.2175 87° East 464 534 41,000  Level Denver Center
Tue 09:44:54 PM 41.8736 -104.0536 87° East 462 532 41,000  Level Denver Center
Tue 09:45:55 PM 41.8808 -103.8600 87° East 466 536 41,000  Level Denver Center
Tue 09:46:57 PM 41.8858 -103.6958 88° East 464 534 41,000  Level Denver Center
Tue 09:47:59 PM 41.8933 -103.5025 87° East 465 535 41,000  Level Denver Center
Tue 09:49:00 PM 41.9142 -103.3375 80° East 468 539 41,000  Level Denver Center
Tue 09:50:02 PM 41.9414 -103.1447 79° East 473 544 41,000  Level Denver Center
Tue 09:51:03 PM 41.9636 -102.9811 80° East 468 539 41,000  Level Denver Center
Tue 09:52:05 PM 41.9856 -102.8206 80° East 459 528 41,000  Level Denver Center
Tue 09:53:06 PM 42.0106 -102.6314 80° East 460 529 41,000  Level Denver Center
Tue 09:54:08 PM 42.0333 -102.4717 79° East 457 526 41,000  Level Denver Center
Tue 09:55:09 PM 42.0575 -102.2842 80° East 456 525 41,000  Level Denver Center
Tue 09:56:11 PM 42.0792 -102.1250 80° East 457 526 41,000  Level Denver Center
Tue 09:57:12 PM 42.0989 -101.9661 80° East 453 521 41,000  Level Denver Center
Tue 09:58:14 PM 42.1231 -101.7792 80° East 453 521 41,000  Level Denver Center
Tue 09:59:15 PM 42.1428 -101.6178 81° East 455 524 41,000  Level Denver Center
Tue 10:00:16 PM 42.1672 -101.4267 80° East 460 529 41,000  Level Denver Center
Tue 10:01:18 PM 42.1875 -101.2644 80° East 459 528 41,000  Level Denver Center
Tue 10:02:19 PM 42.2067 -101.1022 81° East 459 528 41,000  Level Denver Center
Tue 10:03:21 PM 42.2283 -100.9131 81° East 457 526 41,000  Level Denver Center
Tue 10:04:22 PM 42.2481 -100.7517 81° East 455 524 41,000  Level Denver Center
Tue 10:05:24 PM 42.2703 -100.5603 81° East 460 529 41,000  Level Denver Center
Tue 10:06:25 PM 42.2892 -100.3975 81° East 460 529 41,000  Level Denver Center
Tue 10:07:19 PM 42.3047 -100.2589 81° East 461 531 41,000  Level Minneapolis Center
Tue 10:08:20 PM 42.3228 -100.0906 82° East 457 526 41,000  Level Minneapolis Center
Tue 10:09:29 PM 42.3464 -99.8822 81° East 457 526 41,000  Level Denver Center
Tue 10:10:31 PM 42.3717 -99.6933 80° East 456 525 41,000  Level Denver Center
Tue 10:11:24 PM 42.3903 -99.5483 80° East 457 526 41,000  Level Minneapolis Center
Tue 10:12:25 PM 42.4108 -99.3786 81° East 457 526 41,000  Level Minneapolis Center
Tue 10:13:26 PM 42.4325 -99.2094 80° East 456 525 41,000  Level Minneapolis Center
Tue 10:14:27 PM 42.4500 -99.0747 80° East 453 521 41,000  Level Minneapolis Center
Tue 10:15:29 PM 42.4742 -98.8703 81° East 457 526 41,000  Level Minneapolis Center
Tue 10:16:30 PM 42.4947 -98.6983 81° East 459 528 41,000  Level Minneapolis Center
Tue 10:17:31 PM 42.5158 -98.5242 81° East 465 535 41,000  Level Minneapolis Center
Tue 10:18:32 PM 42.5361 -98.3478 81° East 471 542 41,000  Level Minneapolis Center
Tue 10:19:33 PM 42.5564 -98.1697 81° East 475 547 41,000  Level Minneapolis Center
Tue 10:20:35 PM 42.5769 -97.9903 81° East 479 551 41,000  Level Minneapolis Center
Tue 10:21:36 PM 42.5978 -97.8003 81° East 482 555 41,000  Level Minneapolis Center
Tue 10:22:37 PM 42.6169 -97.6208 82° East 482 555 41,000  Level Minneapolis Center
Tue 10:23:38 PM 42.6367 -97.4383 82° East 487 560 41,000  Level Minneapolis Center
Tue 10:24:39 PM 42.6567 -97.2564 81° East 486 559 41,000  Level Minneapolis Center
Tue 10:25:41 PM 42.6753 -97.0742 82° East 487 560 41,000  Level Minneapolis Center
Tue 10:26:42 PM 42.6947 -96.8850 82° East 486 559 41,000  Level Minneapolis Center
Tue 10:27:43 PM 42.7139 -96.7036 82° East 487 560 41,000  Level Minneapolis Center
Tue 10:28:44 PM 42.7347 -96.4867 82° East 485 558 41,000  Level Minneapolis Center
Tue 10:29:45 PM 42.7525 -96.3061 82° East 484 557 41,000  Level Minneapolis Center
Tue 10:30:46 PM 42.7689 -96.1244 83° East 485 558 41,000  Level Minneapolis Center
Tue 10:31:48 PM 42.7861 -95.9425 83° East 488 562 41,000  Level Minneapolis Center
Tue 10:32:49 PM 42.8033 -95.7639 82° East 482 555 41,000 295 Level Minneapolis Center
Tue 10:33:50 PM 42.8167 -95.6186 83° East 484 557 41,600 1,033 Climbing Minneapolis Center
Tue 10:34:51 PM 42.8367 -95.4031 83° East 484 557 43,100 1,033 Climbing Minneapolis Center
Tue 10:35:52 PM 42.8511 -95.2328 83° East 467 537 43,700 541 Climbing Minneapolis Center
Tue 10:36:53 PM 42.8653 -95.0656 83° East 455 524 44,200 639 Climbing Minneapolis Center
Tue 10:37:54 PM 42.8831 -94.8628 83° East 452 520 45,000 390 Climbing Minneapolis Center
Tue 10:38:56 PM 42.8967 -94.6944 84° East 450 518 45,000  Level Minneapolis Center
Tue 10:39:57 PM 42.9089 -94.5425 84° East 456 525 45,000  Level Minneapolis Center
Tue 10:40:58 PM 42.9233 -94.3733 83° East 456 525 45,000  Level Minneapolis Center
Tue 10:41:59 PM 42.9353 -94.2019 85° East 458 527 45,000  Level Minneapolis Center
Tue 10:43:00 PM 42.9519 -93.9950 84° East 461 531 45,000  Level Minneapolis Center
Tue 10:44:00 PM 42.9619 -93.8567 84° East 461 531 45,000  Level Minneapolis Center
Tue 10:45:02 PM 42.9778 -93.6472 84° East 460 529 45,000  Level Minneapolis Center
Tue 10:46:03 PM 42.9897 -93.4783 84° East 460 529 45,000  Level Minneapolis Center
Tue 10:47:04 PM 43.0025 -93.3064 84° East 460 529 45,000  Level Minneapolis Center
Tue 10:48:05 PM 43.0142 -93.1325 85° East 461 531 45,000  Level Minneapolis Center
Tue 10:49:06 PM 43.0267 -92.9597 84° East 462 532 45,000  Level Minneapolis Center
Tue 10:50:07 PM 43.0381 -92.7864 85° East 463 533 45,000  Level Minneapolis Center
Tue 10:50:59 PM 43.0478 -92.6122 86° East 463 533 45,000  Level Chicago Center
Tue 10:52:01 PM 43.0589 -92.4375 85° East 465 535 45,000  Level Chicago Center
Tue 10:53:02 PM 43.0711 -92.2633 84° East 463 533 45,000  Level Chicago Center
Tue 10:54:03 PM 43.0814 -92.0883 85° East 465 535 45,000  Level Chicago Center
Tue 10:55:04 PM 43.0933 -91.9133 85° East 464 534 45,000  Level Chicago Center
Tue 10:56:05 PM 43.1044 -91.7358 85° East 467 537 45,000  Level Chicago Center
Tue 10:57:06 PM 43.1136 -91.5572 86° East 470 541 45,000  Level Chicago Center
Tue 10:58:07 PM 43.1239 -91.3792 85° East 470 541 45,000  Level Chicago Center
Tue 10:59:08 PM 43.1361 -91.1661 85° East 471 542 45,000  Level Chicago Center
Tue 11:00:09 PM 43.1447 -90.9892 86° East 468 539 45,000  Level Chicago Center
Tue 11:01:10 PM 43.1522 -90.8108 87° East 472 543 45,000  Level Chicago Center
Tue 11:02:11 PM 43.1611 -90.6344 86° East 470 541 45,000  Level Chicago Center
Tue 11:03:12 PM 43.1664 -90.4547 88° East 474 545 45,000  Level Chicago Center
Tue 11:04:13 PM 43.1694 -90.2778 89° East 472 543 45,000  Level Chicago Center
Tue 11:05:14 PM 43.1717 -90.0983 89° East 471 542 45,000  Level Chicago Center
Tue 11:06:14 PM 43.1744 -89.9178 89° East 471 542 45,000  Level Chicago Center
Tue 11:07:15 PM 43.1786 -89.7092 88° East 470 541 45,000  Level Chicago Center
Tue 11:08:16 PM 43.1803 -89.5292 89° East 471 542 45,000  Level Chicago Center
Tue 11:09:17 PM 43.1814 -89.3500 89° East 473 544 45,000  Level Chicago Center
Tue 11:10:18 PM 43.1833 -89.1708 89° East 473 544 45,000  Level Chicago Center
Tue 11:11:19 PM 43.1853 -88.9894 89° East 477 549 45,000  Level Chicago Center
Tue 11:12:20 PM 43.1856 -88.8108 90° East 474 545 45,000  Level Chicago Center
Tue 11:13:21 PM 43.1864 -88.6306 90° East 476 548 45,000  Level Chicago Center
Tue 11:14:22 PM 43.1861 -88.4492 90° East 481 554 45,000  Level Chicago Center
Tue 11:15:23 PM 43.1869 -88.2694 90° East 479 551 45,000  Level Chicago Center
Tue 11:16:24 PM 43.1881 -88.0886 89° East 478 550 45,000  Level Chicago Center
Tue 11:17:24 PM 43.1889 -87.8783 90° East 476 548 45,000  Level Chicago Center
Tue 11:18:25 PM 43.1886 -87.6967 90° East 478 550 45,000  Level Chicago Center
Tue 11:19:26 PM 43.1886 -87.5147 90° East 479 551 45,000  Level Chicago Center
Tue 11:20:27 PM 43.1872 -87.3439 91° East 474 545 45,000  Level Chicago Center
Tue 11:21:28 PM 43.1872 -87.1703 90° East 461 531 45,000  Level Chicago Center
Tue 11:22:29 PM 43.1853 -86.9958 91° East 459 528 45,000  Level Chicago Center
Tue 11:23:29 PM 43.1833 -86.8236 91° East 454 522 45,000  Level Chicago Center
Tue 11:24:30 PM 43.1806 -86.6528 91° East 450 518 45,000  Level Chicago Center
Tue 11:25:31 PM 43.1625 -86.4847 98° East 457 526 45,000  Level Chicago Center
Tue 11:26:32 PM 43.1061 -86.3283 116° Southeast 459 528 45,000  Level Chicago Center
Tue 11:27:33 PM 43.0464 -86.1714 117° Southeast 467 537 45,000  Level Chicago Center
Tue 11:28:33 PM 42.9836 -85.9967 116° Southeast 486 559 45,000  Level Chicago Center
Tue 11:29:34 PM 42.8881 -85.8403 130° Southeast 514 592 45,000  Level Chicago Center
Tue 11:30:35 PM 42.7758 -85.7369 146° Southeast 506 582 45,000  Level Chicago Center
Tue 11:31:36 PM 42.6647 -85.6333 146° Southeast 493 567 45,000  Level Chicago Center
Tue 11:32:37 PM 42.5503 -85.5283 146° Southeast 495 570 45,000  Level Chicago Center
Tue 11:33:37 PM 42.4403 -85.4264 146° Southeast 487 560 45,000  Level Chicago Center
Tue 11:34:38 PM 42.3408 -85.3111 139° Southeast 473 544 45,000  Level Chicago Center
Tue 11:35:39 PM 42.2517 -85.1822 133° Southeast 467 537 45,000  Level Chicago Center
Tue 11:36:40 PM 42.1767 -85.0442 126° Southeast 461 531 45,000  Level Chicago Center
Tue 11:37:40 PM 42.1011 -84.8983 125° Southeast 470 541 45,000  Level Chicago Center
Tue 11:38:41 PM 42.0250 -84.7550 126° Southeast 472 543 45,000  Level Chicago Center
Tue 11:39:42 PM 41.9344 -84.5847 126° Southeast 480 552 45,000  Level Chicago Center
Tue 11:40:43 PM 41.8894 -84.4175 110° East 475 547 45,000  Level Chicago Center
Tue 11:41:30 PM 41.8919 -84.2822 89° East 442 509 45,000  Level Cleveland Center
Tue 11:42:30 PM 41.8922 -84.1456 90° East 416 479 45,000  Level Cleveland Center
Tue 11:43:30 PM 41.8969 -83.9811 88° East 423 487 45,000  Level Cleveland Center
Tue 11:44:30 PM 41.9019 -83.8167 88° East 434 499 45,000  Level Cleveland Center
Tue 11:45:30 PM 41.9086 -83.6442 87° East 447 514 45,000  Level Cleveland Center
Tue 11:46:30 PM 41.9158 -83.4489 87° East 466 536 45,000  Level Cleveland Center
Tue 11:47:30 PM 41.9200 -83.2761 88° East 466 536 45,000  Level Cleveland Center
Tue 11:48:30 PM 41.9219 -83.0947 89° East 473 544 45,000  Level Cleveland Center
Tue 11:49:30 PM 41.9278 -82.9192 87° East 473 544 45,000  Level Cleveland Center
Tue 11:50:30 PM 41.9333 -82.7436 88° East 473 544 45,000  Level Cleveland Center
Tue 11:51:30 PM 41.9364 -82.5678 89° East 473 544 45,000  Level Cleveland Center
Tue 11:52:30 PM 41.9372 -82.3947 90° East 473 544 45,000  Level Cleveland Center
Tue 11:53:30 PM 41.9419 -82.2189 88° East 468 539 45,000  Level Cleveland Center
Tue 11:54:30 PM 41.9506 -82.0517 86° East 463 533 45,000  Level Cleveland Center
Tue 11:55:30 PM 41.9506 -81.8786 90° East 453 521 45,000  Level Cleveland Center
Tue 11:56:30 PM 41.9544 -81.7028 88° East 462 532 45,000  Level Cleveland Center
Tue 11:57:30 PM 41.9561 -81.5269 89° East 462 532 45,000  Level Cleveland Center
Tue 11:58:30 PM 41.9575 -81.3539 89° East 462 532 45,000  Level Cleveland Center
Tue 11:59:30 PM 41.9583 -81.1833 90° East 462 532 45,000  Level Cleveland Center
Wed 12:00:30 AM 41.9592 -81.0300 90° East 456 525 45,000  Level Cleveland Center
Wed 12:01:30 AM 41.9617 -80.8511 89° East 461 531 45,000  Level Cleveland Center
Wed 12:02:30 AM 41.9619 -80.6808 90° East 456 525 45,000  Level Cleveland Center
Wed 12:03:30 AM 41.9619 -80.5078 90° East 461 531 45,000  Level Cleveland Center
Wed 12:04:30 AM 41.9617 -80.3375 90° East 455 524 45,000  Level Cleveland Center
Wed 12:05:30 AM 41.9633 -80.1614 89° East 461 531 45,000  Level Cleveland Center
Wed 12:06:30 AM 41.9625 -79.9717 90° East 461 531 45,000  Level Cleveland Center
Wed 12:07:30 AM 41.9636 -79.7956 89° East 461 531 45,000  Level Cleveland Center
Wed 12:08:30 AM 41.9622 -79.6197 91° East 461 531 45,000  Level Cleveland Center
Wed 12:09:30 AM 41.9606 -79.4383 91° East 466 536 45,000  Level Cleveland Center
Wed 12:10:30 AM 41.9567 -79.2597 92° East 471 542 45,000  Level Cleveland Center
Wed 12:11:30 AM 41.9567 -79.0950 90° East 482 555 45,000  Level Cleveland Center
Wed 12:12:30 AM 41.9542 -78.9164 91° East 482 555 45,000  Level Cleveland Center
Wed 12:13:30 AM 41.9514 -78.7350 91° East 476 548 45,000  Level Cleveland Center
Wed 12:14:30 AM 41.9506 -78.5561 90° East 476 548 45,000  Level Cleveland Center
Wed 12:15:30 AM 41.9472 -78.3803 91° East 476 548 45,000  Level Cleveland Center
Wed 12:17:09 AM 41.9406 -78.0736 92° East 483 556 45,000  Level New York Center
Wed 12:18:09 AM 41.9369 -77.8947 91° East 483 556 45,000  Level New York Center
Wed 12:19:09 AM 41.9308 -77.7156 93° East 483 556 45,000  Level New York Center
Wed 12:20:09 AM 41.9286 -77.5369 91° East 483 556 45,000  Level New York Center
Wed 12:21:09 AM 41.9239 -77.3581 92° East 483 556 45,000  Level New York Center
Wed 12:22:09 AM 41.9194 -77.1764 92° East 483 556 45,000  Level New York Center
Wed 12:23:09 AM 41.9142 -76.9975 92° East 483 556 45,000 -250 Level New York Center
Wed 12:24:09 AM 41.9111 -76.8186 91° East 478 550 44,500 -1,507 Descending New York Center
Wed 12:26:40 AM 41.9006 -76.3733 92° East 497 572 39,700 -1,952 Descending Boston Center
Wed 12:27:38 AM 41.8922 -76.1886 93° East 497 572 37,700 -2,034 Descending Boston Center
Wed 12:28:38 AM 41.8858 -76.0014 93° East 497 572 35,700 -2,000 Descending Boston Center
Wed 12:29:38 AM 41.8769 -75.8114 94° East 497 572 33,700 -1,785 Descending Boston Center
Wed 12:30:39 AM 41.8736 -75.6467 92° East 497 572 32,100 -1,835 Descending Boston Center
Wed 12:31:39 AM 41.8642 -75.4592 94° East 502 578 30,000 -2,067 Descending Boston Center
Wed 12:32:38 AM 41.8564 -75.2750 93° East 502 578 28,000 -2,017 Descending Boston Center
Wed 12:33:38 AM 41.8503 -75.0906 92° East 497 572 26,000 -1,983 Descending Boston Center
Wed 12:34:39 AM 41.8419 -74.9175 94° East 483 556 24,000 -1,967 Descending Boston Center
Wed 12:35:40 AM 41.8181 -74.7550 101° East 459 528 22,000 -1,983 Descending Boston Center
Wed 12:36:40 AM 41.7836 -74.6006 107° East 441 507 20,000 -2,118 Descending Boston Center
Wed 12:37:39 AM 41.7472 -74.4353 106° East 429 494 17,800 -2,034 Descending Boston Center
Wed 12:38:38 AM 41.7142 -74.2839 106° East 423 487 16,000 -1,866 Descending Boston Center
Wed 12:39:38 AM 41.6831 -74.1442 107° East 408 470 14,100 -1,800 Descending Boston Center
Wed 12:40:38 AM 41.6539 -74.0100 106° East 384 442 12,400 -1,550 Descending Boston Center
Wed 12:41:38 AM 41.6264 -73.8869 107° East 360 414 11,000 -1,436 Descending Boston Center
Wed 12:42:35 AM 41.6000 -73.7833 109° East 310 357 9,600 -1,385 Descending New York TRACON
Wed 12:43:35 AM 41.5833 -73.6667 101° East 307 353 8,300 -1,250 Descending New York TRACON
Wed 12:44:35 AM 41.5333 -73.5833 129° Southeast 301 346 7,100 -1,250 Descending New York TRACON
Wed 12:45:35 AM 41.4667 -73.5167 143° Southeast 283 326 5,800 -1,200 Descending New York TRACON
Wed 12:46:35 AM 41.4167 -73.4333 129° Southeast 285 328 4,700 -900 Descending New York TRACON
Wed 12:47:35 AM 41.3667 -73.3500 129° Southeast 290 334 4,000 -350 Descending New York TRACON
Wed 12:48:35 AM 41.3000 -73.2833 143° Southeast 284 327 4,000 -95 Level New York TRACON
Wed 12:49:41 AM 41.2500 -73.2000 129° Southeast 281 323 3,800 -952 Descending New York TRACON
Wed 12:50:41 AM 41.2000 -73.1333 135° Southeast 269 310 2,000 -900 Descending New York TRACON
Wed 12:51:41 AM 41.1500 -73.0667 135° Southeast 228 262 2,000  Level New York TRACON
Wed 12:52:41 AM 41.1000 -73.0167 143° Southeast 222 255 2,000 -263 Level New York TRACON
Wed 12:53:35 AM 41.1000 -72.9500 90° East 192 221 1,500 -261 Descending New York TRACON
Wed 12:54:36 AM 41.1333 -72.9000 48° Northeast 186 214 1,500  Level New York TRACON
Wed 12:55:35 AM 41.1833 -72.9000 360° North 178 205 1,500  Level New York TRACON

Login

Don't have an account? Register now (free) for customized features, flight alerts, and more!